createdAt,value
2022-11-17T00:00:42.619Z,20.20
2022-11-17T00:03:15.763Z,20.05
2022-11-17T00:05:44.141Z,20.60
2022-11-17T00:08:12.223Z,20.00
2022-11-17T00:10:39.606Z,17.25
2022-11-17T00:13:25.327Z,18.35
2022-11-17T00:15:52.993Z,18.27
2022-11-17T00:18:39.002Z,19.62
2022-11-17T00:21:21.570Z,18.17
2022-11-17T00:23:50.566Z,18.65
2022-11-17T00:26:29.555Z,19.17
2022-11-17T00:29:01.983Z,18.02
2022-11-17T00:31:50.283Z,18.08
2022-11-17T00:34:22.643Z,16.37
2022-11-17T00:36:52.218Z,16.25
2022-11-17T00:39:21.431Z,17.60
2022-11-17T00:41:48.866Z,17.30
2022-11-17T00:44:16.907Z,17.50
2022-11-17T00:46:44.574Z,16.40
2022-11-17T00:49:12.740Z,17.33
2022-11-17T00:51:40.898Z,17.20
2022-11-17T00:54:11.033Z,16.73
2022-11-17T00:56:38.502Z,17.42
2022-11-17T00:59:06.217Z,16.30
2022-11-17T01:01:33.921Z,15.68
2022-11-17T01:04:05.212Z,16.73
2022-11-17T01:06:44.122Z,16.52
2022-11-17T01:09:14.801Z,16.30
2022-11-17T01:11:43.235Z,16.20
2022-11-17T01:14:19.791Z,15.70
2022-11-17T01:16:47.638Z,15.70
2022-11-17T01:19:16.033Z,16.30
2022-11-17T01:21:43.728Z,15.07
2022-11-17T01:24:12.370Z,16.63
2022-11-17T01:26:40.631Z,14.90
2022-11-17T01:29:09.091Z,16.02
2022-11-17T01:31:38.825Z,16.17
2022-11-17T01:34:08.362Z,16.25
2022-11-17T01:36:59.859Z,15.63
2022-11-17T01:39:28.991Z,15.23
2022-11-17T01:41:57.239Z,16.05
2022-11-17T01:44:51.645Z,16.33
2022-11-17T01:47:28.411Z,15.05
2022-11-17T01:50:10.983Z,16.50
2022-11-17T01:52:40.913Z,15.93
2022-11-17T01:55:10.061Z,15.85
2022-11-17T01:57:51.171Z,16.42
2022-11-17T02:00:19.188Z,16.25
2022-11-17T02:02:47.973Z,16.07
2022-11-17T02:05:34.126Z,16.00
2022-11-17T02:08:03.957Z,15.60
2022-11-17T02:10:32.080Z,17.12
2022-11-17T02:13:00.807Z,15.70
2022-11-17T02:15:29.090Z,17.13
2022-11-17T02:17:57.457Z,16.15
2022-11-17T02:20:35.652Z,16.00
2022-11-17T02:23:18.599Z,16.05
2022-11-17T02:25:59.975Z,15.20
2022-11-17T02:28:32.721Z,15.53
2022-11-17T02:31:21.617Z,16.33
2022-11-17T02:34:23.734Z,16.10
2022-11-17T02:37:11.788Z,16.08
2022-11-17T02:40:03.749Z,16.40
2022-11-17T02:42:55.648Z,15.73
2022-11-17T02:45:35.772Z,15.25
2022-11-17T02:48:10.443Z,15.35
2022-11-17T02:50:39.670Z,15.52
2022-11-17T02:53:07.723Z,14.70
2022-11-17T02:55:35.794Z,15.80
2022-11-17T02:58:03.784Z,14.45
2022-11-17T03:00:32.903Z,16.20
2022-11-17T03:03:03.393Z,14.68
2022-11-17T03:06:04.544Z,14.55
2022-11-17T03:08:53.534Z,15.07
2022-11-17T03:11:29.067Z,15.55
2022-11-17T03:14:16.611Z,16.60
2022-11-17T03:16:46.999Z,14.90
2022-11-17T03:19:32.535Z,15.55
2022-11-17T03:22:23.003Z,15.20
2022-11-17T03:24:53.673Z,15.85
2022-11-17T03:27:24.888Z,14.35
2022-11-17T03:30:01.005Z,14.75
2022-11-17T03:32:31.955Z,15.85
2022-11-17T03:35:03.830Z,14.53
2022-11-17T03:37:34.010Z,15.38
2022-11-17T03:40:05.137Z,14.98
2022-11-17T03:42:35.036Z,15.82
2022-11-17T03:45:22.531Z,15.38
2022-11-17T03:48:11.321Z,14.67
2022-11-17T03:50:44.064Z,15.05
2022-11-17T03:53:11.901Z,15.73
2022-11-17T03:55:51.495Z,15.50
2022-11-17T03:58:19.846Z,16.45
2022-11-17T04:00:49.487Z,15.57
2022-11-17T04:03:17.206Z,16.05
2022-11-17T04:05:44.799Z,16.05
2022-11-17T04:08:12.242Z,15.18
2022-11-17T04:10:58.643Z,16.67
2022-11-17T04:13:44.867Z,15.53
2022-11-17T04:16:12.681Z,16.62
2022-11-17T04:18:40.304Z,17.70
2022-11-17T04:21:07.866Z,17.40
2022-11-17T04:23:35.911Z,17.33
2022-11-17T04:26:22.687Z,16.97
2022-11-17T04:28:50.744Z,15.27
2022-11-17T04:31:20.492Z,16.67
2022-11-17T04:33:50.184Z,15.07
2022-11-17T04:36:20.586Z,15.60
2022-11-17T04:38:50.594Z,15.77
2022-11-17T04:41:38.219Z,16.15
2022-11-17T04:44:06.906Z,15.52
2022-11-17T04:46:35.634Z,15.38
2022-11-17T04:49:04.391Z,14.90
2022-11-17T04:51:32.396Z,14.67
2022-11-17T04:54:00.991Z,15.63
2022-11-17T04:56:29.284Z,14.80
2022-11-17T04:58:57.007Z,14.90
2022-11-17T05:01:26.243Z,15.15
2022-11-17T05:03:55.444Z,14.60
2022-11-17T05:06:34.066Z,15.77
2022-11-17T05:09:04.994Z,15.77
2022-11-17T05:11:51.204Z,14.87
2022-11-17T05:14:20.879Z,14.20
2022-11-17T05:17:09.943Z,14.23
2022-11-17T05:19:42.106Z,13.57
2022-11-17T05:22:29.290Z,14.77
2022-11-17T05:24:57.524Z,13.55
2022-11-17T05:27:25.455Z,14.43
2022-11-17T05:29:53.211Z,13.97
2022-11-17T05:32:21.072Z,15.55
2022-11-17T05:34:48.732Z,14.50
2022-11-17T05:37:16.351Z,14.50
2022-11-17T05:39:44.190Z,14.02
2022-11-17T05:42:11.825Z,14.73
2022-11-17T05:44:40.042Z,13.82
2022-11-17T05:47:07.882Z,13.68
2022-11-17T05:49:35.387Z,14.07
2022-11-17T05:52:02.837Z,14.25
2022-11-17T05:54:30.657Z,13.33
2022-11-17T05:57:05.036Z,12.77
2022-11-17T05:59:43.758Z,13.65
2022-11-17T06:02:18.127Z,13.75
2022-11-17T06:04:46.409Z,13.45
2022-11-17T06:07:14.300Z,13.77
2022-11-17T06:09:42.465Z,13.80
2022-11-17T06:12:12.076Z,13.13
2022-11-17T06:14:39.899Z,13.88
2022-11-17T06:17:15.216Z,12.80
2022-11-17T06:19:50.721Z,13.10
2022-11-17T06:22:18.352Z,14.15
2022-11-17T06:24:46.120Z,14.00
2022-11-17T06:27:15.394Z,13.48
2022-11-17T06:29:44.825Z,13.93
2022-11-17T06:32:17.137Z,15.13
2022-11-17T06:34:51.982Z,14.65
2022-11-17T06:37:23.522Z,21.05
2022-11-17T06:39:52.782Z,22.13
2022-11-17T06:42:40.238Z,17.55
2022-11-17T06:45:08.614Z,15.63
2022-11-17T06:47:36.129Z,16.35
2022-11-17T06:50:04.311Z,14.93
2022-11-17T06:52:32.092Z,14.93
2022-11-17T06:54:59.620Z,14.63
2022-11-17T06:57:27.426Z,14.03
2022-11-17T06:59:55.289Z,14.45
2022-11-17T07:02:22.936Z,14.05
2022-11-17T07:04:50.475Z,13.75
2022-11-17T07:07:18.514Z,14.18
2022-11-17T07:09:46.186Z,14.50
2022-11-17T07:12:14.057Z,14.07
2022-11-17T07:14:42.133Z,13.27
2022-11-17T07:17:09.620Z,12.95
2022-11-17T07:19:37.160Z,14.30
2022-11-17T07:22:05.131Z,13.37
2022-11-17T07:24:32.755Z,13.02
2022-11-17T07:27:00.378Z,13.07
2022-11-17T07:29:30.554Z,12.90
2022-11-17T07:31:58.169Z,12.73
2022-11-17T07:34:25.859Z,12.40
2022-11-17T07:36:53.626Z,12.40
2022-11-17T07:39:21.901Z,13.00
2022-11-17T07:41:49.568Z,13.18
2022-11-17T07:44:17.373Z,13.38
2022-11-17T07:46:44.879Z,12.77
2022-11-17T07:49:12.537Z,14.10
2022-11-17T07:51:40.290Z,13.80
2022-11-17T07:54:07.892Z,18.20
2022-11-17T07:56:35.485Z,18.25
2022-11-17T07:59:03.524Z,24.63
2022-11-17T08:01:31.168Z,15.63
2022-11-17T08:03:58.993Z,13.80
2022-11-17T08:06:26.731Z,12.70
2022-11-17T08:08:54.857Z,13.35
2022-11-17T08:11:22.718Z,12.87
2022-11-17T08:13:50.933Z,14.00
2022-11-17T08:16:18.681Z,13.85
2022-11-17T08:18:52.135Z,12.80
2022-11-17T08:21:20.304Z,12.65
2022-11-17T08:23:53.037Z,13.70
2022-11-17T08:26:21.056Z,12.95
2022-11-17T08:28:52.284Z,12.93
2022-11-17T08:31:24.494Z,12.05
2022-11-17T08:33:52.313Z,11.45
2022-11-17T08:36:19.786Z,11.30
2022-11-17T08:38:47.366Z,10.40
2022-11-17T08:41:15.181Z,10.18
2022-11-17T08:43:42.622Z,11.20
2022-11-17T08:46:13.780Z,11.77
2022-11-17T08:48:41.811Z,9.57
2022-11-17T08:51:09.724Z,9.90
2022-11-17T08:53:37.245Z,10.40
2022-11-17T08:56:09.705Z,9.60
2022-11-17T08:58:44.753Z,9.77
2022-11-17T09:01:18.324Z,12.83
2022-11-17T09:03:47.321Z,11.02
2022-11-17T09:06:16.110Z,11.40
2022-11-17T09:08:56.390Z,12.48
2022-11-17T09:11:24.660Z,14.23
2022-11-17T09:13:52.539Z,12.53
2022-11-17T09:16:20.649Z,13.80
2022-11-17T09:18:48.518Z,15.00
2022-11-17T09:21:16.437Z,22.83
2022-11-17T09:23:44.084Z,13.70
2022-11-17T09:26:14.223Z,13.60
2022-11-17T09:28:45.460Z,13.05
2022-11-17T09:31:19.383Z,11.70
2022-11-17T09:33:47.136Z,12.45
2022-11-17T09:36:16.158Z,12.37
2022-11-17T09:38:43.889Z,9.70
2022-11-17T09:41:11.447Z,9.10
2022-11-17T09:43:44.051Z,9.55
2022-11-17T09:46:51.400Z,9.00
2022-11-17T09:49:34.089Z,8.88
2022-11-17T09:52:32.850Z,9.00
2022-11-17T09:55:04.644Z,8.50
2022-11-17T09:57:47.701Z,9.00
2022-11-17T10:00:19.251Z,8.65
2022-11-17T10:02:47.009Z,8.82
2022-11-17T10:05:31.057Z,8.77
2022-11-17T10:08:06.460Z,8.57
2022-11-17T10:10:37.705Z,9.05
2022-11-17T10:13:06.423Z,8.85
2022-11-17T10:15:43.770Z,9.35
2022-11-17T10:18:14.537Z,8.70
2022-11-17T10:20:43.942Z,8.02
2022-11-17T10:23:19.026Z,8.00
2022-11-17T10:25:48.572Z,9.30
2022-11-17T10:28:24.841Z,8.57
2022-11-17T10:30:54.394Z,8.57
2022-11-17T10:33:40.538Z,7.78
2022-11-17T10:36:18.145Z,7.87
2022-11-17T10:38:58.822Z,8.25
2022-11-17T10:41:39.261Z,7.12
2022-11-17T10:44:22.264Z,6.50
2022-11-17T10:47:03.016Z,7.55
2022-11-17T10:49:38.483Z,6.57
2022-11-17T10:52:16.801Z,6.78
2022-11-17T10:54:44.724Z,6.82
2022-11-17T10:57:23.120Z,5.83
2022-11-17T10:59:57.632Z,6.35
2022-11-17T11:02:35.208Z,6.45
2022-11-17T11:05:21.358Z,6.47
2022-11-17T11:07:48.904Z,5.87
2022-11-17T11:10:19.216Z,6.43
2022-11-17T11:13:10.297Z,6.22
2022-11-17T11:15:38.173Z,6.80
2022-11-17T11:18:13.619Z,6.60
2022-11-17T11:21:07.795Z,7.22
2022-11-17T11:23:47.818Z,6.20
2022-11-17T11:26:43.325Z,6.37
2022-11-17T11:29:28.821Z,6.25
2022-11-17T11:32:10.011Z,6.43
2022-11-17T11:34:41.260Z,6.32
2022-11-17T11:37:12.586Z,5.97
2022-11-17T11:39:49.189Z,6.28
2022-11-17T11:42:56.777Z,6.12
2022-11-17T11:46:01.351Z,6.37
2022-11-17T11:48:34.073Z,5.68
2022-11-17T11:51:05.642Z,5.63
2022-11-17T11:53:51.944Z,6.10
2022-11-17T11:56:23.349Z,6.68
2022-11-17T11:58:57.474Z,6.25
2022-11-17T12:01:25.797Z,5.90
2022-11-17T12:04:13.311Z,6.50
2022-11-17T12:06:53.795Z,5.90
2022-11-17T12:09:40.686Z,6.15
2022-11-17T12:12:35.828Z,6.20
2022-11-17T12:15:13.032Z,6.25
2022-11-17T12:17:57.357Z,6.43
2022-11-17T12:20:31.040Z,6.00
2022-11-17T12:23:17.360Z,6.50
2022-11-17T12:25:50.650Z,6.28
2022-11-17T12:28:39.965Z,6.28
2022-11-17T12:31:31.947Z,5.90
2022-11-17T12:33:59.351Z,6.60
2022-11-17T12:36:32.515Z,5.75
2022-11-17T12:39:08.841Z,5.93
2022-11-17T12:41:48.907Z,6.18
2022-11-17T12:44:38.044Z,5.47
2022-11-17T12:47:28.354Z,6.15
2022-11-17T12:50:18.327Z,5.80
2022-11-17T12:52:46.134Z,6.00
2022-11-17T12:55:54.947Z,6.28
2022-11-17T12:58:24.760Z,5.93
2022-11-17T13:01:16.449Z,6.40
2022-11-17T13:03:49.495Z,5.82
2022-11-17T13:06:34.928Z,6.25
2022-11-17T13:09:11.814Z,6.25
2022-11-17T13:11:39.269Z,5.47
2022-11-17T13:14:16.119Z,5.85
2022-11-17T13:16:49.520Z,6.45
2022-11-17T13:19:38.450Z,6.03
2022-11-17T13:22:11.965Z,6.12
2022-11-17T13:24:41.626Z,6.00
2022-11-17T13:27:29.199Z,6.22
2022-11-17T13:30:24.543Z,5.95
2022-11-17T13:32:52.233Z,6.50
2022-11-17T13:35:23.197Z,5.75
2022-11-17T13:38:00.742Z,4.90
2022-11-17T13:40:29.221Z,5.90
2022-11-17T13:42:57.934Z,5.93
2022-11-17T13:45:25.567Z,5.82
2022-11-17T13:47:54.789Z,5.45
2022-11-17T13:50:31.214Z,5.53
2022-11-17T13:53:06.628Z,5.68
2022-11-17T13:55:34.530Z,6.18
2022-11-17T13:58:23.277Z,6.60
2022-11-17T14:00:56.199Z,6.80
2022-11-17T14:03:34.951Z,6.37
2022-11-17T14:06:04.861Z,6.20
2022-11-17T14:08:34.089Z,5.97
2022-11-17T14:11:27.885Z,6.47
2022-11-17T14:13:58.948Z,7.37
2022-11-17T14:16:37.932Z,7.53
2022-11-17T14:19:14.952Z,7.10
2022-11-17T14:22:27.523Z,7.05
2022-11-17T14:24:58.611Z,6.00
2022-11-17T14:27:28.873Z,5.53
2022-11-17T14:29:56.302Z,5.73
2022-11-17T14:32:23.990Z,5.80
2022-11-17T14:34:51.535Z,6.07
2022-11-17T14:37:19.136Z,6.32
2022-11-17T14:39:46.966Z,5.80
2022-11-17T14:42:14.477Z,6.27
2022-11-17T14:44:41.980Z,6.62
2022-11-17T14:47:09.728Z,6.60
2022-11-17T14:49:37.225Z,6.10
2022-11-17T14:52:05.223Z,5.60
2022-11-17T14:54:32.989Z,4.97
2022-11-17T14:57:00.504Z,4.87
2022-11-17T14:59:27.964Z,5.03
2022-11-17T15:01:55.848Z,4.97
2022-11-17T15:07:11.239Z,4.77
2022-11-17T15:09:38.783Z,4.60
2022-11-17T15:12:06.650Z,5.75
2022-11-17T15:14:34.450Z,4.80
2022-11-17T15:17:01.965Z,4.80
2022-11-17T15:19:29.564Z,4.90
2022-11-17T15:21:57.556Z,3.97
2022-11-17T15:24:25.052Z,3.87
2022-11-17T15:26:52.533Z,4.20
2022-11-17T15:29:20.631Z,4.05
2022-11-17T15:31:48.533Z,3.87
2022-11-17T15:34:20.135Z,3.85
2022-11-17T15:36:49.081Z,3.97
2022-11-17T15:39:17.405Z,3.83
2022-11-17T15:41:45.214Z,3.87
2022-11-17T15:44:13.640Z,4.23
2022-11-17T15:46:46.936Z,4.00
2022-11-17T15:49:15.600Z,5.00
2022-11-17T15:51:43.367Z,4.18
2022-11-17T15:54:16.387Z,3.97
2022-11-17T15:56:47.799Z,3.53
2022-11-17T15:59:16.015Z,7.18
2022-11-17T16:01:44.239Z,7.03
2022-11-17T16:04:14.754Z,7.70
2022-11-17T16:06:44.106Z,9.02
2022-11-17T16:09:12.566Z,9.67
2022-11-17T16:11:40.649Z,8.80
2022-11-17T16:14:08.356Z,7.25
2022-11-17T16:16:37.910Z,6.03
2022-11-17T16:19:06.392Z,6.00
2022-11-17T16:21:33.926Z,5.63
2022-11-17T16:24:02.356Z,6.57
2022-11-17T16:26:30.532Z,6.95
2022-11-17T16:29:04.085Z,6.22
2022-11-17T16:31:36.013Z,7.35
2022-11-17T16:34:11.596Z,7.97
2022-11-17T16:36:40.667Z,7.62
2022-11-17T16:39:11.736Z,7.82
2022-11-17T16:41:40.829Z,6.68
2022-11-17T16:44:11.860Z,7.28
2022-11-17T16:46:44.636Z,6.30
2022-11-17T16:49:14.519Z,5.97
2022-11-17T16:51:50.240Z,7.95
2022-11-17T16:54:18.599Z,10.20
2022-11-17T16:56:46.447Z,10.20
2022-11-17T16:59:14.490Z,9.73
2022-11-17T17:02:03.677Z,10.65
2022-11-17T17:04:31.967Z,10.32
2022-11-17T17:06:59.597Z,10.43
2022-11-17T17:09:28.120Z,10.93
2022-11-17T17:11:56.383Z,11.40
2022-11-17T17:14:23.857Z,11.48
2022-11-17T17:16:51.363Z,11.35
2022-11-17T17:19:19.400Z,12.50
2022-11-17T17:21:47.139Z,12.45
2022-11-17T17:24:14.680Z,13.50
2022-11-17T17:26:42.583Z,12.80
2022-11-17T17:29:11.147Z,13.13
2022-11-17T17:31:40.778Z,15.20
2022-11-17T17:34:10.261Z,14.85
2022-11-17T17:36:38.681Z,15.17
2022-11-17T17:39:06.697Z,16.10
2022-11-17T17:41:38.564Z,16.83
2022-11-17T17:44:07.593Z,18.77
2022-11-17T17:46:37.571Z,18.20
2022-11-17T17:49:05.887Z,17.43
2022-11-17T17:51:37.129Z,17.90
2022-11-17T17:54:05.094Z,18.83
2022-11-17T17:56:33.915Z,17.35
2022-11-17T17:59:01.913Z,18.27
2022-11-17T18:01:33.244Z,18.63
2022-11-17T18:04:05.179Z,23.92
2022-11-17T18:06:38.318Z,18.58
2022-11-17T18:09:08.065Z,15.48
2022-11-17T18:11:36.017Z,14.57
2022-11-17T18:14:04.153Z,13.50
2022-11-17T18:16:34.334Z,13.82
2022-11-17T18:19:07.283Z,13.15
2022-11-17T18:21:35.550Z,12.05
2022-11-17T18:24:03.822Z,12.90
2022-11-17T18:26:36.060Z,12.10
2022-11-17T18:29:05.992Z,14.73
2022-11-17T18:31:34.935Z,12.10
2022-11-17T18:34:27.515Z,12.02
2022-11-17T18:36:55.906Z,11.60
2022-11-17T18:39:24.606Z,11.20
2022-11-17T18:41:52.345Z,12.70
2022-11-17T18:44:20.262Z,11.77
2022-11-17T18:46:48.236Z,11.55
2022-11-17T18:49:16.180Z,11.85
2022-11-17T18:51:44.213Z,11.60
2022-11-17T18:54:12.536Z,11.00
2022-11-17T18:56:40.191Z,11.63
2022-11-17T18:59:11.713Z,11.45
2022-11-17T19:01:41.080Z,11.38
2022-11-17T19:04:10.009Z,11.83
2022-11-17T19:06:37.590Z,10.52
2022-11-17T19:09:06.083Z,12.05
2022-11-17T19:11:34.718Z,12.32
2022-11-17T19:14:03.160Z,13.15
2022-11-17T19:16:31.987Z,11.17
2022-11-17T19:19:00.198Z,13.15
2022-11-17T19:21:33.623Z,12.77
2022-11-17T19:24:02.991Z,12.95
2022-11-17T19:26:32.207Z,14.57
2022-11-17T19:29:02.206Z,13.10
2022-11-17T19:31:30.543Z,14.07
2022-11-17T19:33:58.234Z,13.90
2022-11-17T19:36:32.230Z,14.32
2022-11-17T19:39:01.836Z,13.30
2022-11-17T19:41:30.521Z,13.13
2022-11-17T19:44:00.111Z,12.77
2022-11-17T19:46:29.028Z,13.82
2022-11-17T19:48:57.599Z,13.85
2022-11-17T19:51:29.924Z,13.55
2022-11-17T19:54:01.595Z,14.00
2022-11-17T19:56:29.352Z,13.70
2022-11-17T19:58:57.670Z,14.65
2022-11-17T20:01:27.924Z,14.48
2022-11-17T20:03:56.751Z,17.15
2022-11-17T20:06:29.285Z,15.07
2022-11-17T20:08:57.613Z,15.52
2022-11-17T20:11:27.284Z,14.50
2022-11-17T20:13:55.519Z,13.57
2022-11-17T20:16:25.117Z,15.02
2022-11-17T20:18:54.464Z,14.83
2022-11-17T20:21:22.350Z,15.45
2022-11-17T20:23:50.313Z,16.83
2022-11-17T20:33:05.585Z,13.87
2022-11-17T20:35:39.892Z,14.13
2022-11-17T20:38:10.496Z,13.65
2022-11-17T20:40:40.833Z,13.70
2022-11-17T20:43:08.420Z,13.95
2022-11-17T20:45:35.918Z,13.73
2022-11-17T20:48:03.769Z,14.00
2022-11-17T20:50:32.066Z,13.90
2022-11-17T20:52:59.501Z,12.60
2022-11-17T20:55:27.280Z,13.20
2022-11-17T20:57:54.799Z,13.33
2022-11-17T21:00:22.270Z,13.60
2022-11-17T21:02:50.032Z,13.43
2022-11-17T21:05:17.544Z,13.75
2022-11-17T21:07:45.094Z,12.98
2022-11-17T21:10:12.943Z,12.50
2022-11-17T21:12:40.368Z,12.68
2022-11-17T21:15:08.080Z,12.65
2022-11-17T21:18:01.563Z,12.75
2022-11-17T21:20:29.295Z,12.73
2022-11-17T21:22:57.062Z,11.83
2022-11-17T21:25:24.642Z,13.25
2022-11-17T21:27:52.179Z,12.27
2022-11-17T21:30:20.151Z,12.40
2022-11-17T21:32:47.712Z,11.93
2022-11-17T21:35:15.271Z,12.23
2022-11-17T21:37:43.055Z,12.95
2022-11-17T21:40:10.934Z,11.98
2022-11-17T21:42:38.514Z,11.82
2022-11-17T21:45:08.017Z,12.65
2022-11-17T21:47:35.556Z,11.70
2022-11-17T21:50:03.351Z,12.30
2022-11-17T21:52:31.215Z,15.77
2022-11-17T21:54:58.820Z,13.65
2022-11-17T21:57:26.325Z,12.30
2022-11-17T21:59:54.195Z,12.27
2022-11-17T22:02:22.288Z,12.23
2022-11-17T22:04:50.003Z,12.07
2022-11-17T22:07:17.598Z,12.77
2022-11-17T22:09:45.171Z,10.55
2022-11-17T22:12:12.911Z,11.50
2022-11-17T22:14:40.391Z,11.68
2022-11-17T22:17:07.875Z,12.50
2022-11-17T22:19:35.764Z,12.82
2022-11-17T22:22:03.352Z,11.55
2022-11-17T22:24:31.000Z,11.33
2022-11-17T22:26:58.827Z,11.75
2022-11-17T22:29:26.534Z,12.07
2022-11-17T22:31:54.141Z,11.10
2022-11-17T22:34:21.911Z,11.80
2022-11-17T22:36:49.422Z,11.37
2022-11-17T22:39:17.051Z,11.23
2022-11-17T22:41:45.017Z,11.32
2022-11-17T22:44:16.154Z,11.65
2022-11-17T22:46:43.684Z,11.15
2022-11-17T22:49:12.129Z,10.53
2022-11-17T22:51:58.197Z,11.05
2022-11-17T22:54:25.999Z,11.25
2022-11-17T22:56:53.524Z,10.80
2022-11-17T22:59:26.116Z,11.50
2022-11-17T23:01:54.046Z,11.20
2022-11-17T23:04:23.097Z,10.20
2022-11-17T23:06:50.745Z,10.85
2022-11-17T23:09:18.791Z,10.70
2022-11-17T23:11:46.422Z,10.27
2022-11-17T23:14:14.652Z,11.23
2022-11-17T23:16:42.698Z,10.93
2022-11-17T23:19:13.743Z,11.45
2022-11-17T23:21:41.455Z,11.18
2022-11-17T23:24:11.015Z,11.02
2022-11-17T23:26:39.897Z,10.43
2022-11-17T23:29:07.886Z,10.98
2022-11-17T23:31:35.628Z,9.75
2022-11-17T23:34:03.336Z,10.15
2022-11-17T23:36:30.900Z,10.00
2022-11-17T23:38:58.701Z,9.77
2022-11-17T23:41:26.165Z,10.45
2022-11-17T23:43:54.284Z,10.55
2022-11-17T23:46:24.405Z,10.70
2022-11-17T23:48:52.249Z,10.60
2022-11-17T23:51:24.821Z,10.83
2022-11-17T23:53:53.231Z,11.20
2022-11-17T23:56:20.781Z,11.25
2022-11-17T23:58:49.003Z,10.70
